sensor_id;sensor_type;location;lat;lon;timestamp;pressure;altitude;pressure_sealevel;temperature;humidity
67931;BME280;63902;52.000;5.954;2023-11-21T00:00:17;100643.78;;;6.50;100.00
67931;BME280;63902;52.000;5.954;2023-11-21T00:01:18;100636.72;;;6.51;100.00
67931;BME280;63902;52.000;5.954;2023-11-21T00:02:18;100641.97;;;6.53;100.00
67931;BME280;63902;52.000;5.954;2023-11-21T00:03:19;100641.06;;;6.54;100.00
67931;BME280;63902;52.000;5.954;2023-11-21T00:04:19;100636.63;;;6.54;100.00
67931;BME280;63902;52.000;5.954;2023-11-21T00:05:20;100638.34;;;6.55;100.00
67931;BME280;63902;52.000;5.954;2023-11-21T00:06:21;100636.63;;;6.56;100.00
67931;BME280;63902;52.000;5.954;2023-11-21T00:07:22;100640.22;;;6.52;100.00
67931;BME280;63902;52.000;5.954;2023-11-21T00:08:22;100642.81;;;6.53;100.00
67931;BME280;63902;52.000;5.954;2023-11-21T00:09:23;100645.41;;;6.55;100.00
67931;BME280;63902;52.000;5.954;2023-11-21T00:10:23;100643.72;;;6.52;100.00
67931;BME280;63902;52.000;5.954;2023-11-21T00:11:24;100644.59;;;6.53;100.00
67931;BME280;63902;52.000;5.954;2023-11-21T00:12:24;100648.91;;;6.55;100.00
67931;BME280;63902;52.000;5.954;2023-11-21T00:13:25;100650.66;;;6.56;100.00
67931;BME280;63902;52.000;5.954;2023-11-21T00:14:25;100645.47;;;6.53;100.00
67931;BME280;63902;52.000;5.954;2023-11-21T00:15:26;100644.59;;;6.53;100.00
67931;BME280;63902;52.000;5.954;2023-11-21T00:16:26;100655.94;;;6.55;100.00
67931;BME280;63902;52.000;5.954;2023-11-21T00:17:26;100655.16;;;6.53;100.00
67931;BME280;63902;52.000;5.954;2023-11-21T00:18:27;100653.38;;;6.53;100.00
67931;BME280;63902;52.000;5.954;2023-11-21T00:19:27;100655.16;;;6.53;100.00
67931;BME280;63902;52.000;5.954;2023-11-21T00:20:28;100655.16;;;6.53;100.00
67931;BME280;63902;52.000;5.954;2023-11-21T00:21:30;100665.69;;;6.53;100.00
67931;BME280;63902;52.000;5.954;2023-11-21T00:22:30;100655.19;;;6.49;100.00
67931;BME280;63902;52.000;5.954;2023-11-21T00:23:30;100657.88;;;6.48;100.00
67931;BME280;63902;52.000;5.954;2023-11-21T00:24:31;100656.94;;;6.50;100.00
67931;BME280;63902;52.000;5.954;2023-11-21T00:25:31;100658.66;;;6.52;100.00
67931;BME280;63902;52.000;5.954;2023-11-21T00:26:32;100659.59;;;6.49;100.00
67931;BME280;63902;52.000;5.954;2023-11-21T00:27:32;100656.94;;;6.50;100.00
67931;BME280;63902;52.000;5.954;2023-11-21T00:28:33;100658.75;;;6.48;100.00
67931;BME280;63902;52.000;5.954;2023-11-21T00:29:33;100656.97;;;6.49;100.00
67931;BME280;63902;52.000;5.954;2023-11-21T00:30:34;100661.28;;;6.52;100.00
67931;BME280;63902;52.000;5.954;2023-11-21T00:31:34;100662.16;;;6.52;100.00
67931;BME280;63902;52.000;5.954;2023-11-21T00:32:35;100663.03;;;6.53;100.00
67931;BME280;63902;52.000;5.954;2023-11-21T00:33:35;100658.72;;;6.50;100.00
67931;BME280;63902;52.000;5.954;2023-11-21T00:34:36;100663.03;;;6.53;100.00
67931;BME280;63902;52.000;5.954;2023-11-21T00:35:36;100669.19;;;6.52;100.00
67931;BME280;63902;52.000;5.954;2023-11-21T00:36:38;100662.16;;;6.52;100.00
67931;BME280;63902;52.000;5.954;2023-11-21T00:37:39;100663.16;;;6.48;100.00
67931;BME280;63902;52.000;5.954;2023-11-21T00:38:39;100656.94;;;6.50;100.00
67931;BME280;63902;52.000;5.954;2023-11-21T00:39:39;100662.22;;;6.50;100.00
67931;BME280;63902;52.000;5.954;2023-11-21T00:40:40;100659.53;;;6.52;100.00
67931;BME280;63902;52.000;5.954;2023-11-21T00:41:40;100663.94;;;6.52;100.00
67931;BME280;63902;52.000;5.954;2023-11-21T00:42:41;100665.69;;;6.53;100.00
67931;BME280;63902;52.000;5.954;2023-11-21T00:43:41;100663.06;;;6.51;100.00
67931;BME280;63902;52.000;5.954;2023-11-21T00:44:42;100665.69;;;6.53;100.00
67931;BME280;63902;52.000;5.954;2023-11-21T00:45:42;100665.69;;;6.53;100.00
67931;BME280;63902;52.000;5.954;2023-11-21T00:46:43;100666.53;;;6.53;100.00
67931;BME280;63902;52.000;5.954;2023-11-21T00:47:43;100666.53;;;6.53;100.00
67931;BME280;63902;52.000;5.954;2023-11-21T00:48:44;100677.03;;;6.55;100.00
67931;BME280;63902;52.000;5.954;2023-11-21T00:49:44;100680.50;;;6.55;100.00
67931;BME280;63902;52.000;5.954;2023-11-21T00:50:45;100669.97;;;6.55;100.00
67931;BME280;63902;52.000;5.954;2023-11-21T00:51:46;100677.94;;;6.54;100.00
67931;BME280;63902;52.000;5.954;2023-11-21T00:52:47;100675.31;;;6.54;100.00
67931;BME280;63902;52.000;5.954;2023-11-21T00:53:47;100677.94;;;6.54;100.00
67931;BME280;63902;52.000;5.954;2023-11-21T00:54:48;100682.34;;;6.53;100.00
67931;BME280;63902;52.000;5.954;2023-11-21T00:55:48;100679.72;;;6.53;100.00
67931;BME280;63902;52.000;5.954;2023-11-21T00:56:49;100678.78;;;6.54;100.00
67931;BME280;63902;52.000;5.954;2023-11-21T00:57:49;100680.56;;;6.54;100.00
67931;BME280;63902;52.000;5.954;2023-11-21T00:58:50;100686.69;;;6.54;100.00
67931;BME280;63902;52.000;5.954;2023-11-21T00:59:50;100685.84;;;6.54;100.00
67931;BME280;63902;52.000;5.954;2023-11-21T01:00:51;100679.75;;;6.52;100.00
67931;BME280;63902;52.000;5.954;2023-11-21T01:01:51;100688.50;;;6.52;100.00
67931;BME280;63902;52.000;5.954;2023-11-21T01:02:51;100685.84;;;6.54;100.00
67931;BME280;63902;52.000;5.954;2023-11-21T01:03:52;100687.63;;;6.53;100.00
67931;BME280;63902;52.000;5.954;2023-11-21T01:04:52;100699.03;;;6.54;100.00
67931;BME280;63902;52.000;5.954;2023-11-21T01:05:53;100698.06;;;6.56;100.00
67931;BME280;63902;52.000;5.954;2023-11-21T01:06:55;100691.97;;;6.54;100.00
67931;BME280;63902;52.000;5.954;2023-11-21T01:07:55;100699.78;;;6.57;100.00
67931;BME280;63902;52.000;5.954;2023-11-21T01:08:56;100698.94;;;6.57;100.00
67931;BME280;63902;52.000;5.954;2023-11-21T01:09:56;100697.22;;;6.56;100.00
67931;BME280;63902;52.000;5.954;2023-11-21T01:10:56;100705.94;;;6.58;100.00
67931;BME280;63902;52.000;5.954;2023-11-21T01:11:57;100699.78;;;6.57;100.00
67931;BME280;63902;52.000;5.954;2023-11-21T01:12:57;100706.72;;;6.61;100.00
67931;BME280;63902;52.000;5.954;2023-11-21T01:13:58;100694.41;;;6.62;100.00
67931;BME280;63902;52.000;5.954;2023-11-21T01:14:58;100696.28;;;6.58;100.00
67931;BME280;63902;52.000;5.954;2023-11-21T01:15:59;100695.34;;;6.59;100.00
67931;BME280;63902;52.000;5.954;2023-11-21T01:16:59;100703.22;;;6.61;100.00
67931;BME280;63902;52.000;5.954;2023-11-21T01:18:00;100708.44;;;6.62;100.00
67931;BME280;63902;52.000;5.954;2023-11-21T01:19:00;100709.38;;;6.61;100.00
67931;BME280;63902;52.000;5.954;2023-11-21T01:20:01;100711.06;;;6.64;100.00
67931;BME280;63902;52.000;5.954;2023-11-21T01:21:01;100716.34;;;6.64;100.00
67931;BME280;63902;52.000;5.954;2023-11-21T01:22:04;100724.19;;;6.65;100.00
67931;BME280;63902;52.000;5.954;2023-11-21T01:23:04;100716.28;;;6.65;100.00
67931;BME280;63902;52.000;5.954;2023-11-21T01:24:05;100711.91;;;6.64;100.00
67931;BME280;63902;52.000;5.954;2023-11-21T01:25:06;100720.63;;;6.66;100.00
67931;BME280;63902;52.000;5.954;2023-11-21T01:26:06;100728.50;;;6.68;100.00
67931;BME280;63902;52.000;5.954;2023-11-21T01:27:07;100715.44;;;6.63;100.00
67931;BME280;63902;52.000;5.954;2023-11-21T01:28:07;100728.50;;;6.68;100.00
67931;BME280;63902;52.000;5.954;2023-11-21T01:29:08;100722.38;;;6.67;100.00
67931;BME280;63902;52.000;5.954;2023-11-21T01:30:09;100732.84;;;6.70;100.00
67931;BME280;63902;52.000;5.954;2023-11-21T01:31:10;100730.22;;;6.69;100.00
67931;BME280;63902;52.000;5.954;2023-11-21T01:32:10;100738.03;;;6.72;100.00
67931;BME280;63902;52.000;5.954;2023-11-21T01:33:11;100732.06;;;6.67;100.00
67931;BME280;63902;52.000;5.954;2023-11-21T01:34:11;100736.31;;;6.71;100.00
67931;BME280;63902;52.000;5.954;2023-11-21T01:35:12;100732.00;;;6.68;100.00
67931;BME280;63902;52.000;5.954;2023-11-21T01:36:12;100733.69;;;6.71;100.00
67931;BME280;63902;52.000;5.954;2023-11-21T01:37:14;100724.16;;;6.67;100.00
67931;BME280;63902;52.000;5.954;2023-11-21T01:38:14;100731.06;;;6.71;100.00
67931;BME280;63902;52.000;5.954;2023-11-21T01:39:15;100739.88;;;6.70;100.00
67931;BME280;63902;52.000;5.954;2023-11-21T01:40:15;100738.97;;;6.71;100.00
67931;BME280;63902;52.000;5.954;2023-11-21T01:41:16;100731.97;;;6.70;100.00
67931;BME280;63902;52.000;5.954;2023-11-21T01:42:16;100724.94;;;6.69;100.00
67931;BME280;63902;52.000;5.954;2023-11-21T01:43:17;100737.16;;;6.73;100.00
67931;BME280;63902;52.000;5.954;2023-11-21T01:44:17;100738.03;;;6.73;100.00
67931;BME280;63902;52.000;5.954;2023-11-21T01:45:18;100735.34;;;6.75;100.00
67931;BME280;63902;52.000;5.954;2023-11-21T01:46:19;100731.81;;;6.76;100.00
67931;BME280;63902;52.000;5.954;2023-11-21T01:47:19;100727.44;;;6.75;100.00
67931;BME280;63902;52.000;5.954;2023-11-21T01:48:20;100738.78;;;6.77;100.00
67931;BME280;63902;52.000;5.954;2023-11-21T01:49:21;100736.16;;;6.77;100.00
67931;BME280;63902;52.000;5.954;2023-11-21T01:50:21;100729.25;;;6.73;100.00
67931;BME280;63902;52.000;5.954;2023-11-21T01:51:22;100731.81;;;6.76;100.00
67931;BME280;63902;52.000;5.954;2023-11-21T01:52:24;100738.78;;;6.77;100.00
67931;BME280;63902;52.000;5.954;2023-11-21T01:53:25;100731.81;;;6.76;100.00
67931;BME280;63902;52.000;5.954;2023-11-21T01:54:26;100731.81;;;6.76;100.00
67931;BME280;63902;52.000;5.954;2023-11-21T01:55:27;100730.09;;;6.75;100.00
67931;BME280;63902;52.000;5.954;2023-11-21T01:56:28;100737.03;;;6.78;100.00
67931;BME280;63902;52.000;5.954;2023-11-21T01:57:28;100730.03;;;6.77;100.00
67931;BME280;63902;52.000;5.954;2023-11-21T01:58:30;100729.16;;;6.76;100.00
67931;BME280;63902;52.000;5.954;2023-11-21T01:59:34;100730.88;;;6.79;100.00
67931;BME280;63902;52.000;5.954;2023-11-21T02:00:35;100731.72;;;6.79;100.00
67931;BME280;63902;52.000;5.954;2023-11-21T02:01:35;100727.38;;;6.78;100.00
67931;BME280;63902;52.000;5.954;2023-11-21T02:02:36;100729.94;;;6.80;100.00
67931;BME280;63902;52.000;5.954;2023-11-21T02:03:36;100729.09;;;6.79;100.00
67931;BME280;63902;52.000;5.954;2023-11-21T02:04:37;100736.06;;;6.80;100.00
67931;BME280;63902;52.000;5.954;2023-11-21T02:05:37;100736.97;;;6.81;100.00
67931;BME280;63902;52.000;5.954;2023-11-21T02:06:38;100719.59;;;6.72;100.00
67931;BME280;63902;52.000;5.954;2023-11-21T02:07:40;100736.06;;;6.80;100.00
67931;BME280;63902;52.000;5.954;2023-11-21T02:08:40;100736.03;;;6.82;100.00
67931;BME280;63902;52.000;5.954;2023-11-21T02:09:41;100732.56;;;6.81;100.00
67931;BME280;63902;52.000;5.954;2023-11-21T02:10:41;100739.50;;;6.84;100.00
67931;BME280;63902;52.000;5.954;2023-11-21T02:11:42;100737.75;;;6.84;100.00
67931;BME280;63902;52.000;5.954;2023-11-21T02:12:43;100740.38;;;6.84;100.00
67931;BME280;63902;52.000;5.954;2023-11-21T02:13:43;100735.09;;;6.84;100.00
67931;BME280;63902;52.000;5.954;2023-11-21T02:14:44;100733.34;;;6.83;100.00
67931;BME280;63902;52.000;5.954;2023-11-21T02:15:44;100737.75;;;6.83;100.00
67931;BME280;63902;52.000;5.954;2023-11-21T02:16:45;100737.75;;;6.84;100.00
67931;BME280;63902;52.000;5.954;2023-11-21T02:17:45;100742.19;;;6.82;100.00
67931;BME280;63902;52.000;5.954;2023-11-21T02:18:46;100731.72;;;6.79;100.00
67931;BME280;63902;52.000;5.954;2023-11-21T02:19:47;100745.72;;;6.81;100.00
67931;BME280;63902;52.000;5.954;2023-11-21T02:20:47;100739.63;;;6.79;100.00
67931;BME280;63902;52.000;5.954;2023-11-21T02:21:49;100738.72;;;6.80;100.00
67931;BME280;63902;52.000;5.954;2023-11-21T02:22:52;100748.38;;;6.81;100.00
67931;BME280;63902;52.000;5.954;2023-11-21T02:23:53;100748.31;;;6.83;100.00
67931;BME280;63902;52.000;5.954;2023-11-21T02:24:53;100751.88;;;6.82;100.00
67931;BME280;63902;52.000;5.954;2023-11-21T02:25:54;100754.44;;;6.83;100.00
67931;BME280;63902;52.000;5.954;2023-11-21T02:26:54;100745.72;;;6.81;100.00
67931;BME280;63902;52.000;5.954;2023-11-21T02:27:55;100750.16;;;6.81;100.00
67931;BME280;63902;52.000;5.954;2023-11-21T02:28:55;100758.91;;;6.81;100.00
67931;BME280;63902;52.000;5.954;2023-11-21T02:29:56;100751.88;;;6.80;100.00
67931;BME280;63902;52.000;5.954;2023-11-21T02:30:56;100751.09;;;6.78;100.00
67931;BME280;63902;52.000;5.954;2023-11-21T02:31:57;100758.09;;;6.79;100.00
67931;BME280;63902;52.000;5.954;2023-11-21T02:32:58;100753.72;;;6.78;100.00
67931;BME280;63902;52.000;5.954;2023-11-21T02:33:58;100757.22;;;6.79;100.00
67931;BME280;63902;52.000;5.954;2023-11-21T02:34:58;100762.41;;;6.82;100.00
67931;BME280;63902;52.000;5.954;2023-11-21T02:35:59;100757.06;;;6.83;100.00
67931;BME280;63902;52.000;5.954;2023-11-21T02:36:59;100757.06;;;6.83;100.00
67931;BME280;63902;52.000;5.954;2023-11-21T02:38:01;100762.41;;;6.82;100.00
67931;BME280;63902;52.000;5.954;2023-11-21T02:39:02;100755.34;;;6.82;100.00
67931;BME280;63902;52.000;5.954;2023-11-21T02:40:03;100755.34;;;6.82;100.00
67931;BME280;63902;52.000;5.954;2023-11-21T02:41:04;100757.13;;;6.82;100.00
67931;BME280;63902;52.000;5.954;2023-11-21T02:42:05;100759.72;;;6.83;100.00
67931;BME280;63902;52.000;5.954;2023-11-21T02:43:05;100757.91;;;6.85;100.00
67931;BME280;63902;52.000;5.954;2023-11-21T02:44:06;100753.50;;;6.86;100.00
67931;BME280;63902;52.000;5.954;2023-11-21T02:45:07;100756.09;;;6.87;100.00
67931;BME280;63902;52.000;5.954;2023-11-21T02:46:08;100756.88;;;6.91;100.00
67931;BME280;63902;52.000;5.954;2023-11-21T02:47:09;100757.75;;;6.91;100.00
67931;BME280;63902;52.000;5.954;2023-11-21T02:48:09;100755.06;;;6.93;100.00
67931;BME280;63902;52.000;5.954;2023-11-21T02:49:10;100759.41;;;6.95;100.00
67931;BME280;63902;52.000;5.954;2023-11-21T02:50:10;100750.75;;;6.90;100.00
67931;BME280;63902;52.000;5.954;2023-11-21T02:51:11;100764.59;;;6.99;100.00
67931;BME280;63902;52.000;5.954;2023-11-21T02:52:11;100762.78;;;7.01;100.00
67931;BME280;63902;52.000;5.954;2023-11-21T02:53:13;100757.50;;;7.01;100.00
67931;BME280;63902;52.000;5.954;2023-11-21T02:54:13;100763.59;;;7.03;100.00
67931;BME280;63902;52.000;5.954;2023-11-21T02:55:14;100762.69;;;7.04;100.00
67931;BME280;63902;52.000;5.954;2023-11-21T02:56:14;100763.56;;;7.04;100.00
67931;BME280;63902;52.000;5.954;2023-11-21T02:57:15;100760.00;;;7.05;100.00
67931;BME280;63902;52.000;5.954;2023-11-21T02:58:15;100755.63;;;7.06;100.00
67931;BME280;63902;52.000;5.954;2023-11-21T02:59:16;100753.88;;;7.05;100.00
67931;BME280;63902;52.000;5.954;2023-11-21T03:00:17;100749.50;;;7.04;100.00
67931;BME280;63902;52.000;5.954;2023-11-21T03:01:17;100755.56;;;7.07;100.00
67931;BME280;63902;52.000;5.954;2023-11-21T03:02:18;100764.34;;;7.08;100.00
67931;BME280;63902;52.000;5.954;2023-11-21T03:03:18;100756.47;;;7.06;100.00
67931;BME280;63902;52.000;5.954;2023-11-21T03:04:19;100756.47;;;7.06;100.00
67931;BME280;63902;52.000;5.954;2023-11-21T03:05:19;100759.06;;;7.08;100.00
67931;BME280;63902;52.000;5.954;2023-11-21T03:06:20;100752.06;;;7.07;100.00
67931;BME280;63902;52.000;5.954;2023-11-21T03:07:20;100758.19;;;7.07;100.00
67931;BME280;63902;52.000;5.954;2023-11-21T03:08:22;100755.63;;;7.06;100.00
67931;BME280;63902;52.000;5.954;2023-11-21T03:09:23;100758.16;;;7.09;100.00
67931;BME280;63902;52.000;5.954;2023-11-21T03:10:23;100755.53;;;7.09;100.00
67931;BME280;63902;52.000;5.954;2023-11-21T03:11:23;100763.47;;;7.07;100.00
67931;BME280;63902;52.000;5.954;2023-11-21T03:12:24;100760.91;;;7.06;100.00
67931;BME280;63902;52.000;5.954;2023-11-21T03:13:24;100758.16;;;7.09;100.00
67931;BME280;63902;52.000;5.954;2023-11-21T03:14:25;100757.28;;;7.08;100.00
67931;BME280;63902;52.000;5.954;2023-11-21T03:15:25;100759.88;;;7.10;100.00
67931;BME280;63902;52.000;5.954;2023-11-21T03:16:26;100756.41;;;7.09;100.00
67931;BME280;63902;52.000;5.954;2023-11-21T03:17:26;100757.25;;;7.10;100.00
67931;BME280;63902;52.000;5.954;2023-11-21T03:18:27;100764.41;;;7.05;100.00
67931;BME280;63902;52.000;5.954;2023-11-21T03:19:27;100767.88;;;7.07;100.00
67931;BME280;63902;52.000;5.954;2023-11-21T03:20:27;100767.88;;;7.07;100.00
67931;BME280;63902;52.000;5.954;2023-11-21T03:21:28;100770.56;;;7.05;100.00
67931;BME280;63902;52.000;5.954;2023-11-21T03:22:28;100771.44;;;7.06;100.00
67931;BME280;63902;52.000;5.954;2023-11-21T03:23:30;100769.66;;;7.06;100.00
67931;BME280;63902;52.000;5.954;2023-11-21T03:24:31;100768.84;;;7.04;100.00
67931;BME280;63902;52.000;5.954;2023-11-21T03:25:31;100774.94;;;7.06;100.00
67931;BME280;63902;52.000;5.954;2023-11-21T03:26:32;100770.53;;;7.07;100.00
67931;BME280;63902;52.000;5.954;2023-11-21T03:27:32;100772.31;;;7.06;100.00
67931;BME280;63902;52.000;5.954;2023-11-21T03:28:32;100771.47;;;7.04;100.00
67931;BME280;63902;52.000;5.954;2023-11-21T03:29:33;100781.94;;;7.07;100.00
67931;BME280;63902;52.000;5.954;2023-11-21T03:30:33;100773.16;;;7.07;100.00
67931;BME280;63902;52.000;5.954;2023-11-21T03:31:34;100778.44;;;7.07;100.00
67931;BME280;63902;52.000;5.954;2023-11-21T03:32:34;100781.00;;;7.08;100.00
67931;BME280;63902;52.000;5.954;2023-11-21T03:33:35;100781.06;;;7.07;100.00
67931;BME280;63902;52.000;5.954;2023-11-21T03:34:35;100783.66;;;7.08;100.00
67931;BME280;63902;52.000;5.954;2023-11-21T03:35:52;100782.84;;;7.06;100.00
67931;BME280;63902;52.000;5.954;2023-11-21T03:36:53;100787.13;;;7.10;100.00
67931;BME280;63902;52.000;5.954;2023-11-21T03:37:53;100788.91;;;7.10;100.00
67931;BME280;63902;52.000;5.954;2023-11-21T03:38:55;100783.72;;;7.07;100.00
67931;BME280;63902;52.000;5.954;2023-11-21T03:39:56;100789.81;;;7.09;100.00
67931;BME280;63902;52.000;5.954;2023-11-21T03:40:56;100790.69;;;7.09;100.00
67931;BME280;63902;52.000;5.954;2023-11-21T03:41:57;100781.91;;;7.09;100.00
67931;BME280;63902;52.000;5.954;2023-11-21T03:42:57;100786.34;;;7.07;100.00
67931;BME280;63902;52.000;5.954;2023-11-21T03:43:58;100794.09;;;7.13;100.00
67931;BME280;63902;52.000;5.954;2023-11-21T03:44:58;100793.22;;;7.12;100.00
67931;BME280;63902;52.000;5.954;2023-11-21T03:45:58;100789.66;;;7.13;100.00
67931;BME280;63902;52.000;5.954;2023-11-21T03:46:59;100784.47;;;7.12;100.00
67931;BME280;63902;52.000;5.954;2023-11-21T03:47:59;100790.47;;;7.17;100.00
67931;BME280;63902;52.000;5.954;2023-11-21T03:49:00;100795.75;;;7.17;100.00
67931;BME280;63902;52.000;5.954;2023-11-21T03:50:00;100779.09;;;7.15;100.00
67931;BME280;63902;52.000;5.954;2023-11-21T03:51:01;100789.66;;;7.15;100.00
67931;BME280;63902;52.000;5.954;2023-11-21T03:52:01;100786.91;;;7.18;100.00
67931;BME280;63902;52.000;5.954;2023-11-21T03:53:02;100788.63;;;7.19;100.00
67931;BME280;63902;52.000;5.954;2023-11-21T03:54:04;100786.91;;;7.18;100.00
67931;BME280;63902;52.000;5.954;2023-11-21T03:55:05;100781.66;;;7.16;100.00
67931;BME280;63902;52.000;5.954;2023-11-21T03:56:06;100783.44;;;7.16;100.00
67931;BME280;63902;52.000;5.954;2023-11-21T03:57:06;100789.50;;;7.20;100.00
67931;BME280;63902;52.000;5.954;2023-11-21T03:58:07;100784.28;;;7.18;100.00
67931;BME280;63902;52.000;5.954;2023-11-21T03:59:07;100791.34;;;7.17;100.00
67931;BME280;63902;52.000;5.954;2023-11-21T04:00:09;100787.78;;;7.18;100.00
67931;BME280;63902;52.000;5.954;2023-11-21T04:01:09;100794.78;;;7.20;100.00
67931;BME280;63902;52.000;5.954;2023-11-21T04:02:10;100790.53;;;7.14;100.00
67931;BME280;63902;52.000;5.954;2023-11-21T04:03:10;100783.44;;;7.16;100.00
67931;BME280;63902;52.000;5.954;2023-11-21T04:04:11;100794.78;;;7.20;100.00
67931;BME280;63902;52.000;5.954;2023-11-21T04:05:11;100792.19;;;7.18;100.00
67931;BME280;63902;52.000;5.954;2023-11-21T04:06:12;100786.84;;;7.21;100.00
67931;BME280;63902;52.000;5.954;2023-11-21T04:07:12;100794.72;;;7.23;100.00
67931;BME280;63902;52.000;5.954;2023-11-21T04:08:13;100790.31;;;7.23;100.00
67931;BME280;63902;52.000;5.954;2023-11-21T04:09:14;100790.38;;;7.20;100.00
67931;BME280;63902;52.000;5.954;2023-11-21T04:10:15;100796.47;;;7.22;100.00
67931;BME280;63902;52.000;5.954;2023-11-21T04:11:15;100800.00;;;7.23;100.00
67931;BME280;63902;52.000;5.954;2023-11-21T04:12:16;100796.53;;;7.21;100.00
67931;BME280;63902;52.000;5.954;2023-11-21T04:13:16;100798.25;;;7.22;100.00
67931;BME280;63902;52.000;5.954;2023-11-21T04:14:17;100804.38;;;7.22;100.00
67931;BME280;63902;52.000;5.954;2023-11-21T04:15:17;100809.66;;;7.22;100.00
67931;BME280;63902;52.000;5.954;2023-11-21T04:16:18;100814.94;;;7.22;100.00
67931;BME280;63902;52.000;5.954;2023-11-21T04:17:19;100805.31;;;7.21;100.00
67931;BME280;63902;52.000;5.954;2023-11-21T04:18:19;100808.78;;;7.22;100.00
67931;BME280;63902;52.000;5.954;2023-11-21T04:19:19;100812.28;;;7.22;100.00
67931;BME280;63902;52.000;5.954;2023-11-21T04:20:20;100815.84;;;7.21;100.00
67931;BME280;63902;52.000;5.954;2023-11-21T04:21:20;100815.81;;;7.23;100.00
67931;BME280;63902;52.000;5.954;2023-11-21T04:22:21;100820.22;;;7.22;100.00
67931;BME280;63902;52.000;5.954;2023-11-21T04:23:21;100814.06;;;7.22;100.00
67931;BME280;63902;52.000;5.954;2023-11-21T04:24:23;100817.63;;;7.21;100.00
67931;BME280;63902;52.000;5.954;2023-11-21T04:25:23;100821.97;;;7.23;100.00
67931;BME280;63902;52.000;5.954;2023-11-21T04:26:24;100819.25;;;7.25;100.00
67931;BME280;63902;52.000;5.954;2023-11-21T04:27:24;100820.13;;;7.25;100.00
67931;BME280;63902;52.000;5.954;2023-11-21T04:28:25;100822.75;;;7.25;100.00
67931;BME280;63902;52.000;5.954;2023-11-21T04:29:25;100824.53;;;7.25;100.00
67931;BME280;63902;52.000;5.954;2023-11-21T04:30:26;100828.00;;;7.27;100.00
67931;BME280;63902;52.000;5.954;2023-11-21T04:31:26;100822.75;;;7.25;100.00
67931;BME280;63902;52.000;5.954;2023-11-21T04:32:27;100821.88;;;7.26;100.00
67931;BME280;63902;52.000;5.954;2023-11-21T04:33:27;100826.22;;;7.27;100.00
67931;BME280;63902;52.000;5.954;2023-11-21T04:34:28;100830.63;;;7.28;100.00
67931;BME280;63902;52.000;5.954;2023-11-21T04:35:28;100823.66;;;7.26;100.00
67931;BME280;63902;52.000;5.954;2023-11-21T04:36:28;100832.34;;;7.29;100.00
67931;BME280;63902;52.000;5.954;2023-11-21T04:37:29;100834.06;;;7.30;100.00
67931;BME280;63902;52.000;5.954;2023-11-21T04:38:29;100841.16;;;7.28;100.00
67931;BME280;63902;52.000;5.954;2023-11-21T04:39:31;100834.91;;;7.31;100.00
67931;BME280;63902;52.000;5.954;2023-11-21T04:40:32;100834.91;;;7.31;100.00
67931;BME280;63902;52.000;5.954;2023-11-21T04:41:32;100836.69;;;7.30;100.00
67931;BME280;63902;52.000;5.954;2023-11-21T04:42:34;100835.84;;;7.30;100.00
67931;BME280;63902;52.000;5.954;2023-11-21T04:43:34;100841.09;;;7.31;100.00
67931;BME280;63902;52.000;5.954;2023-11-21T04:44:35;100844.59;;;7.30;100.00
67931;BME280;63902;52.000;5.954;2023-11-21T04:45:35;100844.59;;;7.32;100.00
67931;BME280;63902;52.000;5.954;2023-11-21T04:46:35;100849.84;;;7.32;100.00
67931;BME280;63902;52.000;5.954;2023-11-21T04:47:36;100849.84;;;7.32;100.00
67931;BME280;63902;52.000;5.954;2023-11-21T04:48:36;100846.34;;;7.31;100.00
67931;BME280;63902;52.000;5.954;2023-11-21T04:49:37;100848.09;;;7.32;100.00
67931;BME280;63902;52.000;5.954;2023-11-21T04:50:37;100848.16;;;7.29;100.00
67931;BME280;63902;52.000;5.954;2023-11-21T04:51:38;100851.63;;;7.31;100.00
67931;BME280;63902;52.000;5.954;2023-11-21T04:52:38;100849.88;;;7.30;100.00
67931;BME280;63902;52.000;5.954;2023-11-21T04:53:39;100858.63;;;7.32;100.00
67931;BME280;63902;52.000;5.954;2023-11-21T04:54:40;100860.34;;;7.33;100.00
67931;BME280;63902;52.000;5.954;2023-11-21T04:55:41;100854.22;;;7.33;100.00
67931;BME280;63902;52.000;5.954;2023-11-21T04:56:41;100856.84;;;7.34;100.00
67931;BME280;63902;52.000;5.954;2023-11-21T04:57:42;100865.53;;;7.36;100.00
67931;BME280;63902;52.000;5.954;2023-11-21T04:58:42;100861.25;;;7.34;100.00
67931;BME280;63902;52.000;5.954;2023-11-21T04:59:43;100864.69;;;7.36;100.00
67931;BME280;63902;52.000;5.954;2023-11-21T05:00:43;100867.28;;;7.37;100.00
67931;BME280;63902;52.000;5.954;2023-11-21T05:01:44;100872.56;;;7.37;100.00
67931;BME280;63902;52.000;5.954;2023-11-21T05:02:44;100869.94;;;7.37;100.00
67931;BME280;63902;52.000;5.954;2023-11-21T05:03:44;100870.78;;;7.38;100.00
67931;BME280;63902;52.000;5.954;2023-11-21T05:04:45;100867.28;;;7.37;100.00
67931;BME280;63902;52.000;5.954;2023-11-21T05:05:45;100871.66;;;7.38;100.00
67931;BME280;63902;52.000;5.954;2023-11-21T05:06:46;100869.88;;;7.39;100.00
67931;BME280;63902;52.000;5.954;2023-11-21T05:07:46;100871.66;;;7.38;100.00
67931;BME280;63902;52.000;5.954;2023-11-21T05:08:47;100869.00;;;7.40;100.00
67931;BME280;63902;52.000;5.954;2023-11-21T05:09:49;100868.13;;;7.39;100.00
67931;BME280;63902;52.000;5.954;2023-11-21T05:10:49;100872.44;;;7.42;100.00
67931;BME280;63902;52.000;5.954;2023-11-21T05:11:49;100873.31;;;7.43;100.00
67931;BME280;63902;52.000;5.954;2023-11-21T05:12:50;100865.53;;;7.36;100.00
67931;BME280;63902;52.000;5.954;2023-11-21T05:13:50;100871.56;;;7.42;100.00
67931;BME280;63902;52.000;5.954;2023-11-21T05:14:51;100869.78;;;7.42;100.00
67931;BME280;63902;52.000;5.954;2023-11-21T05:15:51;100874.25;;;7.40;100.00
67931;BME280;63902;52.000;5.954;2023-11-21T05:16:52;100873.31;;;7.43;100.00